createdAt,value
2022-08-02T00:01:04.442Z,2.60
2022-08-02T00:03:33.109Z,2.77
2022-08-02T00:06:01.597Z,2.07
2022-08-02T00:08:31.511Z,2.60
2022-08-02T00:10:59.987Z,2.40
2022-08-02T00:13:28.684Z,2.80
2022-08-02T00:15:57.175Z,2.40
2022-08-02T00:18:25.677Z,3.00
2022-08-02T00:20:54.220Z,2.70
2022-08-02T00:23:22.899Z,2.70
2022-08-02T00:25:54.750Z,2.50
2022-08-02T00:28:27.467Z,2.70
2022-08-02T00:30:58.277Z,2.60
2022-08-02T00:34:26.538Z,2.63
2022-08-02T00:36:16.059Z,2.83
2022-08-02T00:38:46.392Z,2.20
2022-08-02T00:41:19.326Z,2.47
2022-08-02T00:43:49.725Z,2.30
2022-08-02T00:46:20.606Z,2.43
2022-08-02T00:48:49.843Z,2.77
2022-08-02T00:51:18.843Z,2.47
2022-08-02T00:53:47.326Z,2.70
2022-08-02T00:56:17.079Z,2.50
2022-08-02T00:58:45.628Z,2.43
2022-08-02T01:01:14.207Z,3.00
2022-08-02T01:03:43.014Z,2.80
2022-08-02T01:06:11.964Z,2.70
2022-08-02T01:08:40.667Z,2.37
2022-08-02T01:11:09.507Z,2.70
2022-08-02T01:13:39.459Z,2.60
2022-08-02T01:16:17.516Z,2.70
2022-08-02T01:18:52.665Z,3.03
2022-08-02T01:21:47.646Z,2.70
2022-08-02T01:24:35.188Z,2.50
2022-08-02T01:27:22.156Z,2.67
2022-08-02T01:29:58.503Z,2.60
2022-08-02T01:32:32.037Z,2.40
2022-08-02T01:35:05.021Z,2.50
2022-08-02T01:37:53.130Z,2.20
2022-08-02T01:40:29.137Z,2.63
2022-08-02T01:42:58.930Z,2.60
2022-08-02T01:45:34.604Z,2.93
2022-08-02T01:48:04.989Z,2.50
2022-08-02T01:50:36.429Z,2.77
2022-08-02T01:53:11.403Z,2.43
2022-08-02T01:55:58.358Z,2.63
2022-08-02T01:58:32.752Z,2.43
2022-08-02T02:01:03.494Z,2.47
2022-08-02T02:03:33.974Z,2.73
2022-08-02T02:06:05.202Z,2.77
2022-08-02T02:08:40.198Z,2.67
2022-08-02T02:12:14.111Z,2.43
2022-08-02T02:14:00.405Z,3.30
2022-08-02T02:16:32.114Z,3.10
2022-08-02T02:19:03.247Z,2.33
2022-08-02T02:21:31.937Z,2.70
2022-08-02T02:24:04.185Z,2.30
2022-08-02T02:26:37.630Z,2.60
2022-08-02T02:29:12.559Z,2.70
2022-08-02T02:31:46.238Z,2.73
2022-08-02T02:34:18.845Z,2.60
2022-08-02T02:36:52.082Z,2.80
2022-08-02T02:39:24.133Z,2.80
2022-08-02T02:41:54.590Z,2.80
2022-08-02T02:44:24.360Z,2.53
2022-08-02T02:46:56.090Z,2.70
2022-08-02T02:49:26.239Z,2.97
2022-08-02T02:51:55.798Z,2.57
2022-08-02T02:54:31.070Z,2.73
2022-08-02T02:57:06.364Z,3.10
2022-08-02T02:59:36.342Z,2.50
2022-08-02T03:02:13.859Z,2.80
2022-08-02T03:04:57.113Z,2.43
2022-08-02T03:07:27.423Z,2.70
2022-08-02T03:09:56.119Z,3.30
2022-08-02T03:12:30.944Z,3.03
2022-08-02T03:15:02.152Z,3.20
2022-08-02T03:17:45.165Z,2.70
2022-08-02T03:20:16.702Z,2.53
2022-08-02T03:22:46.616Z,3.30
2022-08-02T03:25:16.834Z,3.17
2022-08-02T03:27:45.377Z,3.23
2022-08-02T03:30:15.758Z,3.17
2022-08-02T03:32:48.644Z,2.63
2022-08-02T03:35:23.746Z,3.47
2022-08-02T03:37:55.686Z,2.87
2022-08-02T03:40:25.039Z,3.30
2022-08-02T03:42:53.942Z,2.87
2022-08-02T03:45:23.070Z,2.80
2022-08-02T03:47:53.679Z,3.00
2022-08-02T03:50:29.063Z,3.07
2022-08-02T03:52:58.132Z,3.20
2022-08-02T03:55:26.940Z,3.27
2022-08-02T03:57:55.485Z,3.20
2022-08-02T04:00:24.599Z,3.20
2022-08-02T04:02:54.682Z,2.67
2022-08-02T04:05:23.515Z,2.60
2022-08-02T04:08:33.850Z,2.63
2022-08-02T04:10:58.521Z,2.73
2022-08-02T04:13:35.688Z,3.27
2022-08-02T04:16:12.456Z,3.50
2022-08-02T04:18:48.924Z,3.10
2022-08-02T04:21:19.320Z,3.33
2022-08-02T04:23:50.041Z,3.10
2022-08-02T04:26:19.636Z,3.17
2022-08-02T04:28:56.421Z,3.57
2022-08-02T04:31:25.659Z,3.50
2022-08-02T04:33:56.154Z,2.90
2022-08-02T04:36:30.819Z,2.80
2022-08-02T04:39:00.612Z,3.47
2022-08-02T04:41:43.991Z,3.47
2022-08-02T04:44:13.056Z,3.40
2022-08-02T04:46:43.262Z,3.50
2022-08-02T04:49:14.090Z,3.50
2022-08-02T04:51:44.920Z,3.90
2022-08-02T04:54:14.016Z,3.67
2022-08-02T04:56:42.586Z,3.50
2022-08-02T04:59:12.398Z,3.20
2022-08-02T05:01:42.486Z,3.70
2022-08-02T05:04:12.340Z,3.23
2022-08-02T05:06:40.883Z,3.00
2022-08-02T05:09:09.375Z,2.97
2022-08-02T05:11:37.797Z,3.37
2022-08-02T05:14:06.945Z,3.07
2022-08-02T05:16:35.461Z,2.90
2022-08-02T05:19:04.050Z,2.90
2022-08-02T05:21:33.866Z,3.17
2022-08-02T05:24:02.243Z,3.10
2022-08-02T05:26:30.693Z,3.20
2022-08-02T05:28:59.320Z,2.90
2022-08-02T05:31:27.766Z,3.17
2022-08-02T05:33:56.322Z,3.33
2022-08-02T05:36:24.710Z,3.17
2022-08-02T05:38:59.694Z,2.77
2022-08-02T05:41:33.842Z,3.67
2022-08-02T05:44:02.343Z,3.80
2022-08-02T05:46:30.923Z,3.83
2022-08-02T05:49:00.145Z,3.30
2022-08-02T05:51:37.964Z,3.33
2022-08-02T05:54:19.400Z,3.27
2022-08-02T05:56:53.058Z,2.70
2022-08-02T05:59:31.135Z,2.80
2022-08-02T06:02:05.219Z,4.53
2022-08-02T06:04:49.611Z,3.27
2022-08-02T06:07:20.836Z,3.20
2022-08-02T06:09:52.269Z,3.17
2022-08-02T06:12:22.051Z,3.20
2022-08-02T06:14:54.376Z,3.33
2022-08-02T06:17:24.190Z,2.60
2022-08-02T06:19:55.070Z,3.23
2022-08-02T06:22:37.213Z,3.17
2022-08-02T06:25:48.017Z,3.03
2022-08-02T06:27:58.455Z,2.87
2022-08-02T06:30:27.821Z,2.47
2022-08-02T06:32:56.667Z,2.33
2022-08-02T06:35:43.774Z,3.00
2022-08-02T06:38:18.473Z,2.43
2022-08-02T06:40:57.306Z,3.23
2022-08-02T06:43:36.212Z,3.10
2022-08-02T06:46:38.093Z,3.40
2022-08-02T06:48:57.751Z,2.60
2022-08-02T06:51:26.287Z,2.27
2022-08-02T06:53:55.201Z,2.83
2022-08-02T06:56:25.071Z,2.47
2022-08-02T06:58:53.586Z,2.10
2022-08-02T07:01:22.348Z,2.50
2022-08-02T07:03:51.047Z,2.43
2022-08-02T07:06:19.608Z,2.80
2022-08-02T07:09:11.297Z,2.30
2022-08-02T07:11:39.289Z,2.30
2022-08-02T07:14:07.660Z,2.20
2022-08-02T07:16:36.148Z,2.50
2022-08-02T07:19:04.711Z,2.63
2022-08-02T07:21:56.466Z,2.23
2022-08-02T07:24:21.600Z,2.20
2022-08-02T07:27:10.746Z,2.20
2022-08-02T07:29:46.328Z,2.27
2022-08-02T07:32:16.385Z,2.73
2022-08-02T07:34:50.482Z,2.30
2022-08-02T07:37:53.286Z,2.30
2022-08-02T07:40:14.524Z,2.77
2022-08-02T07:42:45.689Z,2.70
2022-08-02T07:45:15.706Z,2.90
2022-08-02T07:47:45.874Z,2.67
2022-08-02T07:50:16.761Z,2.30
2022-08-02T07:52:46.389Z,2.13
2022-08-02T07:55:16.380Z,2.23
2022-08-02T07:57:47.668Z,2.60
2022-08-02T08:00:18.310Z,2.37
2022-08-02T08:02:48.173Z,2.20
2022-08-02T08:05:16.950Z,2.10
2022-08-02T08:07:45.499Z,1.93
2022-08-02T08:10:13.956Z,2.30
2022-08-02T08:12:42.481Z,1.77
2022-08-02T08:15:12.753Z,4.43
2022-08-02T08:17:41.592Z,1.67
2022-08-02T08:20:15.608Z,1.90
2022-08-02T08:22:44.461Z,1.93
2022-08-02T08:25:12.939Z,1.53
2022-08-02T08:27:50.257Z,1.90
2022-08-02T08:30:22.005Z,1.80
2022-08-02T08:32:50.921Z,2.10
2022-08-02T08:35:19.373Z,2.20
2022-08-02T08:37:47.857Z,2.10
2022-08-02T08:40:19.701Z,2.00
2022-08-02T08:42:48.499Z,2.13
2022-08-02T08:45:18.055Z,1.83
2022-08-02T08:47:54.234Z,1.50
2022-08-02T08:50:28.047Z,3.03
2022-08-02T08:53:04.456Z,1.90
2022-08-02T08:55:35.449Z,1.30
2022-08-02T08:58:05.777Z,1.70
2022-08-02T09:00:36.420Z,1.33
2022-08-02T09:03:08.592Z,1.63
2022-08-02T09:05:38.901Z,2.23
2022-08-02T09:08:07.857Z,1.70
2022-08-02T09:10:41.962Z,1.77
2022-08-02T09:13:39.256Z,1.93
2022-08-02T09:16:13.106Z,1.73
2022-08-02T09:18:47.618Z,1.50
2022-08-02T09:21:17.638Z,3.00
2022-08-02T09:23:48.916Z,2.07
2022-08-02T09:26:19.162Z,1.60
2022-08-02T09:28:50.386Z,2.10
2022-08-02T09:31:22.095Z,2.33
2022-08-02T09:33:56.595Z,1.90
2022-08-02T09:36:26.277Z,1.70
2022-08-02T09:38:58.606Z,1.98
2022-08-02T09:41:29.796Z,2.38
2022-08-02T09:44:04.763Z,1.57
2022-08-02T09:46:38.917Z,1.60
2022-08-02T09:49:13.223Z,1.80
2022-08-02T09:51:50.477Z,1.83
2022-08-02T09:54:21.360Z,1.60
2022-08-02T09:56:51.814Z,1.10
2022-08-02T09:59:24.643Z,1.65
2022-08-02T10:02:02.262Z,1.80
2022-08-02T10:04:53.434Z,1.63
2022-08-02T10:07:23.452Z,1.88
2022-08-02T10:09:52.317Z,1.50
2022-08-02T10:12:22.390Z,1.63
2022-08-02T10:14:52.876Z,1.38
2022-08-02T10:17:22.556Z,2.10
2022-08-02T10:20:00.850Z,1.73
2022-08-02T10:22:34.778Z,1.60
2022-08-02T10:25:05.865Z,1.85
2022-08-02T10:28:02.472Z,1.98
2022-08-02T10:30:25.870Z,1.93
2022-08-02T10:32:56.298Z,1.52
2022-08-02T10:35:27.204Z,2.97
2022-08-02T10:38:07.874Z,1.80
2022-08-02T10:40:50.857Z,2.70
2022-08-02T10:43:44.296Z,1.90
2022-08-02T10:46:33.546Z,1.77
2022-08-02T10:49:36.694Z,1.70
2022-08-02T10:52:11.365Z,1.63
2022-08-02T10:54:42.159Z,2.20
2022-08-02T10:57:22.799Z,1.67
2022-08-02T10:59:53.514Z,1.57
2022-08-02T11:02:42.834Z,1.53
2022-08-02T11:05:15.547Z,2.37
2022-08-02T11:07:49.407Z,2.27
2022-08-02T11:10:37.535Z,2.07
2022-08-02T11:13:10.885Z,4.10
2022-08-02T11:16:01.279Z,2.30
2022-08-02T11:19:06.703Z,1.70
2022-08-02T11:21:37.338Z,1.30
2022-08-02T11:24:33.327Z,2.10
2022-08-02T11:27:03.191Z,1.70
2022-08-02T11:29:40.500Z,2.10
2022-08-02T11:32:10.943Z,1.93
2022-08-02T11:34:40.768Z,1.90
2022-08-02T11:37:09.264Z,1.83
2022-08-02T11:39:39.290Z,1.63
2022-08-02T11:42:08.737Z,2.20
2022-08-02T11:44:43.212Z,1.77
2022-08-02T11:47:12.600Z,2.13
2022-08-02T11:49:41.277Z,1.90
2022-08-02T11:52:11.675Z,1.40
2022-08-02T11:54:44.197Z,2.03
2022-08-02T11:57:20.894Z,1.97
2022-08-02T11:59:54.302Z,2.20
2022-08-02T12:02:25.150Z,2.20
2022-08-02T12:04:57.310Z,1.97
2022-08-02T12:07:34.961Z,1.70
2022-08-02T12:10:09.700Z,1.50
2022-08-02T12:12:50.383Z,1.93
2022-08-02T12:15:32.773Z,1.97
2022-08-02T12:18:19.643Z,1.80
2022-08-02T12:20:48.464Z,1.90
2022-08-02T12:23:16.853Z,2.10
2022-08-02T12:25:46.749Z,2.63
2022-08-02T12:28:18.303Z,2.73
2022-08-02T12:30:55.604Z,3.30
2022-08-02T12:33:25.632Z,3.13
2022-08-02T12:35:54.647Z,5.60
2022-08-02T12:38:23.491Z,6.60
2022-08-02T12:40:54.231Z,4.60
2022-08-02T12:43:25.242Z,4.77
2022-08-02T12:45:56.664Z,2.77
2022-08-02T12:48:38.413Z,2.33
2022-08-02T12:51:56.763Z,2.93
2022-08-02T12:54:18.275Z,2.77
2022-08-02T12:56:49.041Z,1.57
2022-08-02T12:59:18.203Z,1.60
2022-08-02T13:01:48.478Z,3.60
2022-08-02T13:04:16.996Z,2.50
2022-08-02T13:06:45.818Z,1.93
2022-08-02T13:09:17.006Z,2.07
2022-08-02T13:11:47.508Z,2.20
2022-08-02T13:14:16.428Z,1.90
2022-08-02T13:16:47.006Z,1.60
2022-08-02T13:19:16.341Z,1.87
2022-08-02T13:22:02.722Z,2.83
2022-08-02T13:24:39.911Z,2.53
2022-08-02T13:27:26.240Z,2.30
2022-08-02T13:29:56.744Z,2.07
2022-08-02T13:32:27.931Z,2.80
2022-08-02T13:34:57.267Z,2.20
2022-08-02T13:37:26.314Z,2.30
2022-08-02T13:40:19.975Z,2.10
2022-08-02T13:42:45.018Z,2.17
2022-08-02T13:45:14.338Z,1.80
2022-08-02T13:47:57.490Z,2.50
2022-08-02T13:50:34.041Z,1.70
2022-08-02T13:53:02.524Z,2.13
2022-08-02T13:55:31.104Z,2.20
2022-08-02T13:58:00.931Z,2.03
2022-08-02T14:00:35.445Z,2.73
2022-08-02T14:03:07.117Z,1.80
2022-08-02T14:05:48.043Z,1.97
2022-08-02T14:08:18.422Z,2.07
2022-08-02T14:10:48.097Z,2.57
2022-08-02T14:13:18.793Z,1.80
2022-08-02T14:15:47.789Z,2.17
2022-08-02T14:18:16.537Z,1.70
2022-08-02T14:20:45.331Z,1.83
2022-08-02T14:23:13.855Z,2.30
2022-08-02T14:25:42.634Z,2.30
2022-08-02T14:28:11.044Z,2.40
2022-08-02T14:30:40.961Z,1.80
2022-08-02T14:33:09.445Z,2.00
2022-08-02T14:35:37.849Z,2.07
2022-08-02T14:38:07.205Z,2.30
2022-08-02T14:40:36.018Z,1.90
2022-08-02T14:43:05.353Z,3.33
2022-08-02T14:45:36.963Z,2.30
2022-08-02T14:48:12.233Z,2.40
2022-08-02T14:50:40.804Z,1.87
2022-08-02T14:53:12.761Z,2.30
2022-08-02T14:55:43.185Z,1.97
2022-08-02T14:58:12.048Z,2.17
2022-08-02T15:00:41.718Z,1.90
2022-08-02T15:03:14.825Z,2.00
2022-08-02T15:05:43.322Z,3.03
2022-08-02T15:08:11.821Z,2.90
2022-08-02T15:10:46.654Z,1.97
2022-08-02T15:13:17.835Z,2.47
2022-08-02T15:15:46.211Z,2.30
2022-08-02T15:18:16.124Z,2.43
2022-08-02T15:20:57.457Z,1.57
2022-08-02T15:23:37.575Z,2.30
2022-08-02T15:26:07.779Z,2.77
2022-08-02T15:28:38.522Z,1.90
2022-08-02T15:31:06.947Z,2.30
2022-08-02T15:33:36.760Z,2.40
2022-08-02T15:36:06.058Z,2.03
2022-08-02T15:38:34.826Z,2.30
2022-08-02T15:41:04.374Z,1.63
2022-08-02T15:43:32.926Z,2.03
2022-08-02T15:46:01.369Z,2.30
2022-08-02T15:48:29.906Z,2.67
2022-08-02T15:50:59.726Z,3.03
2022-08-02T15:53:28.171Z,2.37
2022-08-02T15:56:05.693Z,2.40
2022-08-02T15:58:44.301Z,2.67
2022-08-02T16:01:13.423Z,2.50
2022-08-02T16:03:41.898Z,2.40
2022-08-02T16:06:12.393Z,2.20
2022-08-02T16:08:53.570Z,2.07
2022-08-02T16:11:23.862Z,2.10
2022-08-02T16:13:54.255Z,2.00
2022-08-02T16:16:24.537Z,2.17
2022-08-02T16:18:53.234Z,2.10
2022-08-02T16:21:24.708Z,2.63
2022-08-02T16:23:58.646Z,2.37
2022-08-02T16:26:32.439Z,2.57
2022-08-02T16:29:02.355Z,2.20
2022-08-02T16:31:30.956Z,2.20
2022-08-02T16:33:59.977Z,1.93
2022-08-02T16:36:31.203Z,1.90
2022-08-02T16:38:59.751Z,2.20
2022-08-02T16:41:50.888Z,2.27
2022-08-02T16:44:17.336Z,2.30
2022-08-02T16:46:46.039Z,2.90
2022-08-02T16:50:05.021Z,1.80
2022-08-02T16:52:05.263Z,2.13
2022-08-02T16:54:33.717Z,1.53
2022-08-02T16:57:04.986Z,2.90
2022-08-02T16:59:42.707Z,1.90
2022-08-02T17:02:18.519Z,2.27
2022-08-02T17:04:49.263Z,1.90
2022-08-02T17:08:06.151Z,2.20
2022-08-02T17:10:09.745Z,1.90
2022-08-02T17:12:39.217Z,2.03
2022-08-02T17:16:16.569Z,3.50
2022-08-02T17:18:01.128Z,2.50
2022-08-02T17:20:30.276Z,2.53
2022-08-02T17:23:00.623Z,2.20
2022-08-02T17:25:31.945Z,1.73
2022-08-02T17:28:01.174Z,1.87
2022-08-02T17:30:29.724Z,2.23
2022-08-02T17:32:59.335Z,2.13
2022-08-02T17:35:43.733Z,2.10
2022-08-02T17:38:26.674Z,2.43
2022-08-02T17:40:56.629Z,2.33
2022-08-02T17:43:25.978Z,2.13
2022-08-02T17:46:02.248Z,2.53
2022-08-02T17:49:04.290Z,8.50
2022-08-02T17:51:33.096Z,3.17
2022-08-02T17:54:22.893Z,2.73
2022-08-02T17:56:51.983Z,2.07
2022-08-02T17:59:31.090Z,2.13
2022-08-02T18:02:11.250Z,2.27
2022-08-02T18:04:40.049Z,2.53
2022-08-02T18:07:10.377Z,3.00
2022-08-02T18:12:30.026Z,2.80
2022-08-02T18:14:58.436Z,2.83
2022-08-02T18:17:27.034Z,2.60
2022-08-02T18:22:46.300Z,3.00
2022-08-02T18:25:37.278Z,2.60
2022-08-02T18:28:13.648Z,2.70
2022-08-02T18:30:42.066Z,2.77
2022-08-02T18:34:00.467Z,2.40
2022-08-02T18:35:58.895Z,2.70
2022-08-02T18:38:30.160Z,2.60
2022-08-02T18:41:02.823Z,2.97
2022-08-02T18:43:34.466Z,2.60
2022-08-02T18:46:15.844Z,2.20
2022-08-02T18:48:47.897Z,2.70
2022-08-02T18:51:18.761Z,2.93
2022-08-02T18:53:51.231Z,3.10
2022-08-02T18:56:24.378Z,3.20
2022-08-02T18:58:55.323Z,3.23
2022-08-02T19:01:33.873Z,4.03
2022-08-02T19:04:05.147Z,3.37
2022-08-02T19:06:33.988Z,2.57
2022-08-02T19:09:04.945Z,4.50
2022-08-02T19:11:41.366Z,3.47
2022-08-02T19:14:19.127Z,3.33
2022-08-02T19:16:56.634Z,4.10
2022-08-02T19:19:28.954Z,3.20
2022-08-02T19:22:18.295Z,3.20
2022-08-02T19:24:47.824Z,3.93
2022-08-02T19:27:26.300Z,2.40
2022-08-02T19:30:02.876Z,2.63
2022-08-02T19:32:41.591Z,2.60
2022-08-02T19:35:30.542Z,3.60
2022-08-02T19:38:09.378Z,2.80
2022-08-02T19:40:41.672Z,2.87
2022-08-02T19:44:21.132Z,3.40
2022-08-02T19:46:01.645Z,3.73
2022-08-02T19:48:30.803Z,3.70
2022-08-02T19:51:00.807Z,4.03
2022-08-02T19:53:47.520Z,4.97
2022-08-02T19:59:13.245Z,3.50
2022-08-02T20:01:48.589Z,3.27
2022-08-02T20:04:22.183Z,2.87
2022-08-02T20:06:52.154Z,3.00
2022-08-02T20:09:23.395Z,4.30
2022-08-02T20:11:54.945Z,3.63
2022-08-02T20:14:27.718Z,3.70
2022-08-02T20:16:57.643Z,4.30
2022-08-02T20:19:29.608Z,3.50
2022-08-02T20:22:00.558Z,3.10
2022-08-02T20:24:30.043Z,6.40
2022-08-02T20:26:59.217Z,4.40
2022-08-02T20:29:43.721Z,4.23
2022-08-02T20:32:21.301Z,4.43
2022-08-02T20:34:52.451Z,4.10
2022-08-02T20:37:55.934Z,4.80
2022-08-02T20:40:16.398Z,5.27
2022-08-02T20:42:47.900Z,6.20
2022-08-02T20:45:19.153Z,4.47
2022-08-02T20:47:51.024Z,4.73
2022-08-02T20:50:38.643Z,5.20
2022-08-02T20:53:08.690Z,5.70
2022-08-02T20:55:54.256Z,4.90
2022-08-02T20:58:26.920Z,6.10
2022-08-02T21:00:59.823Z,5.97
2022-08-02T21:03:39.376Z,5.80
2022-08-02T21:06:11.362Z,5.70
2022-08-02T21:08:46.118Z,5.30
2022-08-02T21:11:15.074Z,5.43
2022-08-02T21:13:47.313Z,5.90
2022-08-02T21:16:33.315Z,6.40
2022-08-02T21:19:02.325Z,5.93
2022-08-02T21:21:31.110Z,6.27
2022-08-02T21:24:01.488Z,5.40
2022-08-02T21:26:31.299Z,5.87
2022-08-02T21:29:04.392Z,6.43
2022-08-02T21:31:35.696Z,5.63
2022-08-02T21:34:21.599Z,6.37
2022-08-02T21:36:51.309Z,6.07
2022-08-02T21:39:20.537Z,7.33
2022-08-02T21:41:49.633Z,12.00
2022-08-02T21:44:20.494Z,5.70
2022-08-02T21:46:53.779Z,6.30
2022-08-02T21:49:27.144Z,6.07
2022-08-02T21:52:10.280Z,6.03
2022-08-02T21:54:39.909Z,6.40
2022-08-02T21:57:15.157Z,8.23
2022-08-02T21:59:46.248Z,7.00
2022-08-02T22:02:18.142Z,6.20
2022-08-02T22:04:48.008Z,4.90
2022-08-02T22:07:24.077Z,5.03
2022-08-02T22:09:52.987Z,5.30
2022-08-02T22:12:26.327Z,4.13
2022-08-02T22:14:56.493Z,3.80
2022-08-02T22:17:49.947Z,3.80
2022-08-02T22:20:19.719Z,4.30
2022-08-02T22:22:50.721Z,4.43
2022-08-02T22:25:26.803Z,4.20
2022-08-02T22:28:35.572Z,4.07
2022-08-02T22:30:57.308Z,3.80
2022-08-02T22:33:47.101Z,3.77
2022-08-02T22:36:29.912Z,3.47
2022-08-02T22:38:58.443Z,3.67
2022-08-02T22:42:00.912Z,4.10
2022-08-02T22:44:16.841Z,5.03
2022-08-02T22:46:50.290Z,3.90
2022-08-02T22:49:38.670Z,3.67
2022-08-02T22:52:10.706Z,4.20
2022-08-02T22:54:39.557Z,3.70
2022-08-02T22:57:11.386Z,3.83
2022-08-02T22:58:43.845Z,2.50
2022-08-02T22:58:57.895Z,2.40
2022-08-02T22:59:05.753Z,4.60
2022-08-02T22:59:41.415Z,3.90
2022-08-02T23:02:10.750Z,3.83
2022-08-02T23:04:40.604Z,3.60
2022-08-02T23:07:09.081Z,3.47
2022-08-02T23:09:37.870Z,3.50
2022-08-02T23:12:06.944Z,3.87
2022-08-02T23:14:36.379Z,3.57
2022-08-02T23:17:22.053Z,3.60
2022-08-02T23:19:51.845Z,3.80
2022-08-02T23:22:21.813Z,3.60
2022-08-02T23:24:58.772Z,3.43
2022-08-02T23:27:27.147Z,3.83
2022-08-02T23:29:55.698Z,3.60
2022-08-02T23:32:25.755Z,3.20
2022-08-02T23:34:56.455Z,3.47
2022-08-02T23:37:25.448Z,3.73
2022-08-02T23:39:53.904Z,3.80
2022-08-02T23:42:23.310Z,3.33
2022-08-02T23:44:51.790Z,3.70
2022-08-02T23:47:20.392Z,3.40
2022-08-02T23:49:48.795Z,3.50
2022-08-02T23:52:18.918Z,3.30
2022-08-02T23:54:47.481Z,4.20
2022-08-02T23:57:20.158Z,3.87
2022-08-02T23:59:51.638Z,4.03
